createdAt,value
2019-03-29T00:00:57.272Z,45.60
2019-03-29T00:01:57.259Z,46.80
2019-03-29T00:02:57.263Z,44.70
2019-03-29T00:03:57.244Z,43.50
2019-03-29T00:04:57.229Z,42.10
2019-03-29T00:05:57.219Z,44.60
2019-03-29T00:06:57.216Z,45.90
2019-03-29T00:07:57.265Z,42.90
2019-03-29T00:08:57.184Z,48.00
2019-03-29T00:09:57.188Z,44.50
2019-03-29T00:10:57.174Z,44.30
2019-03-29T00:11:57.165Z,44.50
2019-03-29T00:12:57.278Z,45.90
2019-03-29T00:13:57.143Z,45.00
2019-03-29T00:14:57.127Z,44.30
2019-03-29T00:15:57.122Z,44.50
2019-03-29T00:16:57.118Z,48.10
2019-03-29T00:17:57.104Z,46.60
2019-03-29T00:18:57.098Z,50.90
2019-03-29T00:19:57.085Z,49.70
2019-03-29T00:20:57.076Z,45.60
2019-03-29T00:21:57.067Z,47.70
2019-03-29T00:22:57.239Z,52.60
2019-03-29T00:24:06.546Z,50.50
2019-03-29T00:24:57.047Z,51.90
2019-03-29T00:25:57.028Z,48.40
2019-03-29T00:26:57.018Z,48.10
2019-03-29T00:27:57.000Z,46.80
2019-03-29T00:28:56.999Z,44.70
2019-03-29T00:29:56.992Z,50.40
2019-03-29T00:30:56.984Z,49.80
2019-03-29T00:31:56.967Z,51.50
2019-03-29T00:32:57.870Z,51.80
2019-03-29T00:33:56.951Z,49.70
2019-03-29T00:34:56.940Z,56.90
2019-03-29T00:35:56.941Z,48.10
2019-03-29T00:36:56.922Z,51.10
2019-03-29T00:37:56.918Z,48.70
2019-03-29T00:38:56.898Z,52.10
2019-03-29T00:39:56.891Z,55.30
2019-03-29T00:40:56.898Z,50.50
2019-03-29T00:41:56.874Z,52.40
2019-03-29T00:42:56.865Z,54.70
2019-03-29T00:43:56.858Z,51.40
2019-03-29T00:44:56.842Z,46.50
2019-03-29T00:45:56.850Z,53.40
2019-03-29T00:46:56.825Z,52.00
2019-03-29T00:47:56.814Z,48.50
2019-03-29T00:48:56.814Z,49.30
2019-03-29T00:49:56.792Z,51.50
2019-03-29T00:50:56.785Z,53.40
2019-03-29T00:51:56.773Z,46.00
2019-03-29T00:52:56.762Z,49.00
2019-03-29T00:53:56.757Z,49.20
2019-03-29T00:54:56.753Z,49.10
2019-03-29T00:55:56.736Z,47.00
2019-03-29T00:56:56.728Z,48.10
2019-03-29T00:57:56.933Z,47.70
2019-03-29T00:58:56.699Z,53.00
2019-03-29T00:59:56.691Z,53.20
2019-03-29T01:00:56.689Z,50.00
2019-03-29T01:01:56.677Z,51.70
2019-03-29T01:02:56.687Z,51.80
2019-03-29T01:03:56.659Z,47.40
2019-03-29T01:04:56.643Z,47.80
2019-03-29T01:05:56.634Z,48.60
2019-03-29T01:06:56.627Z,48.00
2019-03-29T01:08:07.175Z,50.80
2019-03-29T01:08:56.618Z,49.20
2019-03-29T01:09:56.947Z,47.10
2019-03-29T01:10:56.612Z,47.70
2019-03-29T01:11:56.578Z,50.30
2019-03-29T01:12:56.560Z,48.50
2019-03-29T01:13:56.561Z,52.70
2019-03-29T01:14:56.549Z,56.60
2019-03-29T01:15:56.537Z,47.30
2019-03-29T01:16:56.525Z,54.10
2019-03-29T01:17:56.516Z,51.40
2019-03-29T01:18:56.504Z,57.10
2019-03-29T01:19:56.493Z,58.00
2019-03-29T01:20:56.485Z,56.80
2019-03-29T01:21:56.469Z,55.50
2019-03-29T01:22:57.275Z,57.30
2019-03-29T01:23:56.446Z,57.20
2019-03-29T01:24:56.446Z,54.00
2019-03-29T01:25:56.434Z,58.80
2019-03-29T01:26:56.423Z,55.00
2019-03-29T01:27:56.418Z,55.40
2019-03-29T01:28:56.400Z,56.20
2019-03-29T01:29:56.910Z,56.50
2019-03-29T01:30:56.386Z,60.20
2019-03-29T01:31:56.374Z,52.20
2019-03-29T01:32:56.391Z,56.30
2019-03-29T01:33:56.356Z,51.90
2019-03-29T01:34:56.346Z,52.60
2019-03-29T01:35:56.336Z,51.90
2019-03-29T01:36:56.325Z,56.10
2019-03-29T01:37:56.309Z,51.40
2019-03-29T01:38:56.307Z,55.10
2019-03-29T01:39:56.310Z,50.30
2019-03-29T01:40:56.279Z,50.70
2019-03-29T01:41:56.276Z,52.00
2019-03-29T01:42:56.264Z,55.50
2019-03-29T01:43:56.258Z,52.70
2019-03-29T01:44:56.239Z,54.80
2019-03-29T01:45:56.237Z,49.80
2019-03-29T01:46:56.223Z,52.30
2019-03-29T01:47:56.386Z,54.60
2019-03-29T01:48:56.202Z,55.90
2019-03-29T01:49:56.209Z,55.90
2019-03-29T01:50:56.181Z,55.80
2019-03-29T01:51:56.174Z,55.40
2019-03-29T01:52:56.163Z,59.20
2019-03-29T01:53:56.152Z,50.10
2019-03-29T01:54:57.042Z,57.10
2019-03-29T01:55:56.141Z,52.40
2019-03-29T01:56:56.136Z,57.20
2019-03-29T01:57:56.108Z,53.00
2019-03-29T01:58:56.102Z,53.80
2019-03-29T01:59:56.087Z,53.80
2019-03-29T02:00:56.082Z,56.00
2019-03-29T02:01:56.074Z,61.40
2019-03-29T02:02:56.058Z,53.70
2019-03-29T02:03:56.047Z,53.20
2019-03-29T02:04:56.036Z,60.10
2019-03-29T02:05:56.025Z,52.60
2019-03-29T02:06:56.032Z,61.30
2019-03-29T02:07:56.017Z,52.80
2019-03-29T02:08:56.012Z,54.40
2019-03-29T02:09:56.845Z,64.20
2019-03-29T02:10:55.982Z,51.30
2019-03-29T02:11:55.965Z,58.40
2019-03-29T02:12:55.957Z,59.10
2019-03-29T02:13:55.944Z,64.80
2019-03-29T02:14:55.949Z,63.10
2019-03-29T02:15:55.932Z,63.00
2019-03-29T02:16:56.048Z,62.60
2019-03-29T02:17:55.919Z,63.50
2019-03-29T02:18:55.891Z,54.80
2019-03-29T02:19:55.885Z,52.90
2019-03-29T02:20:55.871Z,58.10
2019-03-29T02:21:55.867Z,52.50
2019-03-29T02:22:55.852Z,57.10
2019-03-29T02:23:56.986Z,65.10
2019-03-29T02:24:55.836Z,56.40
2019-03-29T02:25:55.821Z,53.90
2019-03-29T02:26:55.812Z,60.10
2019-03-29T02:27:55.799Z,56.80
2019-03-29T02:28:55.797Z,65.20
2019-03-29T02:29:55.777Z,57.00
2019-03-29T02:30:55.775Z,50.70
2019-03-29T02:31:56.968Z,52.00
2019-03-29T02:32:55.765Z,53.80
2019-03-29T02:33:55.731Z,55.60
2019-03-29T02:34:55.733Z,56.10
2019-03-29T02:35:55.719Z,58.10
2019-03-29T02:36:55.718Z,51.30
2019-03-29T02:37:56.633Z,56.10
2019-03-29T02:38:57.694Z,54.40
2019-03-29T02:39:55.670Z,55.70
2019-03-29T02:40:55.674Z,55.10
2019-03-29T02:41:55.668Z,60.40
2019-03-29T02:42:55.648Z,62.20
2019-03-29T02:43:55.647Z,59.10
2019-03-29T02:44:55.639Z,60.90
2019-03-29T02:45:56.755Z,68.50
2019-03-29T02:46:55.615Z,62.80
2019-03-29T02:47:55.608Z,67.10
2019-03-29T02:48:55.580Z,64.90
2019-03-29T02:49:55.575Z,61.00
2019-03-29T02:50:55.571Z,64.50
2019-03-29T02:51:55.552Z,62.70
2019-03-29T02:52:55.556Z,63.10
2019-03-29T02:53:55.533Z,62.10
2019-03-29T02:54:55.521Z,64.40
2019-03-29T02:55:55.509Z,66.20
2019-03-29T02:56:55.499Z,69.80
2019-03-29T02:57:55.498Z,64.00
2019-03-29T02:58:55.476Z,60.00
2019-03-29T02:59:55.468Z,69.40
2019-03-29T03:00:55.459Z,60.20
2019-03-29T03:01:55.452Z,63.30
2019-03-29T03:02:55.436Z,67.90
2019-03-29T03:03:55.431Z,69.40
2019-03-29T03:04:55.422Z,63.00
2019-03-29T03:05:55.410Z,69.70
2019-03-29T03:06:55.393Z,68.90
2019-03-29T03:07:55.382Z,65.90
2019-03-29T03:09:12.463Z,73.20
2019-03-29T03:09:55.367Z,67.20
2019-03-29T03:10:55.354Z,63.50
2019-03-29T03:11:55.338Z,67.00
2019-03-29T03:12:55.329Z,72.80
2019-03-29T03:13:55.313Z,73.30
2019-03-29T03:14:55.321Z,66.00
2019-03-29T03:15:55.314Z,69.30
2019-03-29T03:16:55.307Z,68.50
2019-03-29T03:17:55.274Z,67.70
2019-03-29T03:18:55.263Z,66.50
2019-03-29T03:19:55.250Z,65.90
2019-03-29T03:20:55.241Z,65.40
2019-03-29T03:21:55.240Z,68.40
2019-03-29T03:22:55.232Z,66.20
2019-03-29T03:23:55.213Z,63.10
2019-03-29T03:24:55.207Z,59.70
2019-03-29T03:25:55.185Z,74.60
2019-03-29T03:26:55.180Z,70.30
2019-03-29T03:27:55.220Z,65.90
2019-03-29T03:28:55.161Z,61.60
2019-03-29T03:29:55.141Z,63.20
2019-03-29T03:30:55.168Z,74.30
2019-03-29T03:31:55.142Z,70.70
2019-03-29T03:32:55.198Z,74.30
2019-03-29T03:33:55.105Z,73.30
2019-03-29T03:34:55.102Z,71.30
2019-03-29T03:35:55.083Z,67.90
2019-03-29T03:36:55.072Z,71.20
2019-03-29T03:37:55.059Z,60.80
2019-03-29T03:38:55.054Z,67.10
2019-03-29T03:39:55.034Z,70.30
2019-03-29T03:40:55.035Z,77.60
2019-03-29T03:41:55.013Z,66.30
2019-03-29T03:42:55.012Z,73.70
2019-03-29T03:43:54.995Z,69.10
2019-03-29T03:44:54.987Z,74.50
2019-03-29T03:45:54.973Z,72.30
2019-03-29T03:46:54.966Z,68.50
2019-03-29T03:47:54.953Z,71.30
2019-03-29T03:48:54.944Z,72.80
2019-03-29T03:49:54.936Z,81.90
2019-03-29T03:50:54.919Z,81.10
2019-03-29T03:51:54.927Z,80.70
2019-03-29T03:52:54.923Z,78.40
2019-03-29T03:53:54.883Z,74.20
2019-03-29T03:54:54.881Z,80.60
2019-03-29T03:55:54.886Z,74.40
2019-03-29T03:56:54.855Z,82.70
2019-03-29T03:57:57.777Z,77.50
2019-03-29T03:58:54.839Z,75.90
2019-03-29T03:59:54.838Z,84.60
2019-03-29T04:00:54.808Z,78.90
2019-03-29T04:01:54.800Z,78.80
2019-03-29T04:02:54.791Z,75.30
2019-03-29T04:03:54.774Z,69.60
2019-03-29T04:04:54.801Z,72.50
2019-03-29T04:05:54.785Z,90.40
2019-03-29T04:06:54.765Z,90.50
2019-03-29T04:07:54.740Z,98.90
2019-03-29T04:08:54.725Z,106.50
2019-03-29T04:09:54.727Z,107.70
2019-03-29T04:10:54.704Z,97.50
2019-03-29T04:11:54.698Z,104.00
2019-03-29T04:12:54.685Z,106.50
2019-03-29T04:13:54.673Z,102.50
2019-03-29T04:14:54.664Z,93.30
2019-03-29T04:15:54.651Z,91.30
2019-03-29T04:16:54.635Z,87.40
2019-03-29T04:17:54.628Z,79.70
2019-03-29T04:18:54.622Z,77.20
2019-03-29T04:19:54.607Z,80.00
2019-03-29T04:20:54.597Z,83.00
2019-03-29T04:21:54.588Z,86.00
2019-03-29T04:22:54.577Z,89.20
2019-03-29T04:23:54.563Z,91.20
2019-03-29T04:24:54.554Z,85.40
2019-03-29T04:25:54.539Z,81.00
2019-03-29T04:26:54.531Z,87.60
2019-03-29T04:27:54.524Z,79.90
2019-03-29T04:29:04.365Z,80.20
2019-03-29T04:29:54.501Z,73.30
2019-03-29T04:30:54.486Z,79.60
2019-03-29T04:31:54.477Z,86.70
2019-03-29T04:32:54.468Z,79.40
2019-03-29T04:33:54.455Z,82.20
2019-03-29T04:34:54.442Z,81.10
2019-03-29T04:35:54.430Z,79.20
2019-03-29T04:36:54.426Z,84.10
2019-03-29T04:37:54.413Z,76.10
2019-03-29T04:38:54.395Z,86.50
2019-03-29T04:40:06.761Z,82.40
2019-03-29T04:40:54.384Z,82.50
2019-03-29T04:41:54.369Z,77.20
2019-03-29T04:42:54.353Z,80.00
2019-03-29T04:43:54.341Z,76.60
2019-03-29T04:44:54.337Z,81.90
2019-03-29T04:45:54.326Z,83.40
2019-03-29T04:46:54.315Z,79.10
2019-03-29T04:47:54.300Z,76.90
2019-03-29T04:48:54.313Z,86.80
2019-03-29T04:49:54.292Z,92.20
2019-03-29T04:50:54.272Z,91.80
2019-03-29T04:51:54.263Z,80.90
2019-03-29T04:52:54.250Z,80.00
2019-03-29T04:53:54.230Z,76.20
2019-03-29T04:54:54.223Z,92.80
2019-03-29T04:55:54.209Z,82.90
2019-03-29T04:56:54.203Z,78.40
2019-03-29T04:57:54.192Z,87.90
2019-03-29T04:58:54.183Z,81.20
2019-03-29T04:59:54.166Z,89.60
2019-03-29T05:00:54.164Z,84.80
2019-03-29T05:01:54.148Z,83.10
2019-03-29T05:02:54.134Z,83.30
2019-03-29T05:03:54.123Z,81.50
2019-03-29T05:04:54.118Z,81.90
2019-03-29T05:05:54.113Z,84.00
2019-03-29T05:06:54.102Z,91.30
2019-03-29T05:07:54.080Z,84.90
2019-03-29T05:08:54.071Z,74.30
2019-03-29T05:09:54.059Z,72.40
2019-03-29T05:10:54.049Z,76.60
2019-03-29T05:11:54.038Z,80.40
2019-03-29T05:12:54.029Z,80.10
2019-03-29T05:13:54.015Z,85.40
2019-03-29T05:14:54.002Z,86.30
2019-03-29T05:15:53.987Z,78.00
2019-03-29T05:16:53.996Z,80.00
2019-03-29T05:17:53.988Z,75.50
2019-03-29T05:18:53.967Z,82.70
2019-03-29T05:19:53.952Z,74.30
2019-03-29T05:20:53.939Z,85.90
2019-03-29T05:21:53.929Z,74.90
2019-03-29T05:22:53.913Z,86.80
2019-03-29T05:23:53.906Z,85.20
2019-03-29T05:24:53.898Z,82.80
2019-03-29T05:25:54.383Z,88.80
2019-03-29T05:26:53.871Z,103.50
2019-03-29T05:27:53.872Z,92.20
2019-03-29T05:28:53.848Z,95.20
2019-03-29T05:29:53.840Z,92.20
2019-03-29T05:30:53.838Z,82.60
2019-03-29T05:31:53.860Z,86.00
2019-03-29T05:32:53.809Z,84.60
2019-03-29T05:33:53.798Z,88.60
2019-03-29T05:34:53.781Z,99.10
2019-03-29T05:35:53.777Z,84.60
2019-03-29T05:36:53.760Z,85.90
2019-03-29T05:37:53.751Z,85.40
2019-03-29T05:38:53.744Z,86.80
2019-03-29T05:39:53.727Z,80.10
2019-03-29T05:40:53.712Z,74.30
2019-03-29T05:41:53.702Z,78.80
2019-03-29T05:42:53.694Z,90.90
2019-03-29T05:43:53.685Z,86.60
2019-03-29T05:44:53.680Z,75.80
2019-03-29T05:45:53.661Z,72.80
2019-03-29T05:46:53.649Z,72.00
2019-03-29T05:47:53.638Z,83.60
2019-03-29T05:48:53.629Z,73.30
2019-03-29T05:49:53.623Z,69.90
2019-03-29T05:50:53.608Z,68.30
2019-03-29T05:51:53.599Z,66.80
2019-03-29T05:52:53.588Z,61.40
2019-03-29T05:53:53.575Z,66.90
2019-03-29T05:54:53.573Z,53.70
2019-03-29T05:55:53.567Z,68.10
2019-03-29T05:56:53.588Z,54.50
2019-03-29T05:57:53.523Z,59.10
2019-03-29T05:58:53.517Z,54.60
2019-03-29T05:59:53.528Z,55.00
2019-03-29T06:00:53.503Z,57.00
2019-03-29T06:01:53.491Z,48.10
2019-03-29T06:02:53.482Z,45.30
2019-03-29T06:03:53.479Z,44.90
2019-03-29T06:04:53.461Z,49.20
2019-03-29T06:05:53.445Z,49.00
2019-03-29T06:06:53.436Z,48.30
2019-03-29T06:07:53.430Z,47.90
2019-03-29T06:08:53.424Z,44.50
2019-03-29T06:09:53.413Z,46.00
2019-03-29T06:10:53.400Z,46.80
2019-03-29T06:11:53.388Z,45.00
2019-03-29T06:12:53.386Z,44.60
2019-03-29T06:13:53.373Z,43.80
2019-03-29T06:14:53.357Z,43.30
2019-03-29T06:15:53.354Z,45.00
2019-03-29T06:16:53.341Z,48.20
2019-03-29T06:17:53.333Z,48.00
2019-03-29T06:18:53.352Z,44.30
2019-03-29T06:19:53.312Z,47.20
2019-03-29T06:20:53.303Z,46.20
2019-03-29T06:21:53.293Z,54.40
2019-03-29T06:22:53.291Z,50.50
2019-03-29T06:23:53.312Z,47.00
2019-03-29T06:24:53.277Z,43.40
2019-03-29T06:25:53.267Z,51.70
2019-03-29T06:26:53.253Z,43.50
2019-03-29T06:27:53.240Z,47.50
2019-03-29T06:28:53.271Z,48.60
2019-03-29T06:29:53.216Z,42.70
2019-03-29T06:30:53.215Z,42.70
2019-03-29T06:31:53.202Z,45.60
2019-03-29T06:32:53.200Z,46.50
2019-03-29T06:33:53.188Z,48.50
2019-03-29T06:34:53.175Z,45.70
2019-03-29T06:35:53.173Z,51.20
2019-03-29T06:36:53.155Z,55.20
2019-03-29T06:37:53.149Z,47.40
2019-03-29T06:38:53.140Z,47.00
2019-03-29T06:39:53.134Z,48.20
2019-03-29T06:41:02.830Z,48.30
2019-03-29T06:41:53.123Z,47.80
2019-03-29T06:42:53.097Z,46.50
2019-03-29T06:43:53.087Z,44.80
2019-03-29T06:44:53.078Z,46.30
2019-03-29T06:45:53.080Z,37.70
2019-03-29T06:46:53.075Z,41.60
2019-03-29T06:47:53.077Z,41.60
2019-03-29T06:48:53.058Z,38.40
2019-03-29T06:49:53.058Z,43.20
2019-03-29T06:50:53.169Z,40.10
2019-03-29T06:51:53.024Z,40.60
2019-03-29T06:52:53.019Z,37.90
2019-03-29T06:53:53.012Z,41.70
2019-03-29T06:54:53.007Z,42.40
2019-03-29T06:55:53.023Z,35.40
2019-03-29T06:56:52.989Z,40.40
2019-03-29T06:57:52.980Z,38.30
2019-03-29T06:58:52.975Z,37.20
2019-03-29T06:59:52.975Z,41.00
2019-03-29T07:00:52.964Z,37.90
2019-03-29T07:01:52.957Z,35.40
2019-03-29T07:02:52.950Z,33.70
2019-03-29T07:03:52.933Z,36.20
2019-03-29T07:04:52.936Z,38.40
2019-03-29T07:05:52.937Z,41.00
2019-03-29T07:06:52.918Z,36.30
2019-03-29T07:07:52.918Z,40.90
2019-03-29T07:08:52.927Z,34.60
2019-03-29T07:09:52.914Z,38.00
2019-03-29T07:10:52.901Z,42.90
2019-03-29T07:11:52.894Z,38.60
2019-03-29T07:12:56.159Z,34.70
2019-03-29T07:13:57.680Z,38.20
2019-03-29T07:14:52.872Z,41.30
2019-03-29T07:15:52.864Z,35.30
2019-03-29T07:16:52.864Z,39.20
2019-03-29T07:17:52.855Z,39.20
2019-03-29T07:18:52.864Z,34.10
2019-03-29T07:19:52.846Z,36.20
2019-03-29T07:20:52.833Z,38.40
2019-03-29T07:21:52.832Z,36.00
2019-03-29T07:22:52.831Z,36.80
2019-03-29T07:23:52.886Z,35.20
2019-03-29T07:24:52.827Z,35.00
2019-03-29T07:25:56.116Z,34.00
2019-03-29T07:26:52.804Z,39.30
2019-03-29T07:27:52.800Z,38.80
2019-03-29T07:28:52.788Z,34.80
2019-03-29T07:29:52.790Z,39.00
2019-03-29T07:30:52.780Z,38.20
2019-03-29T07:31:53.270Z,35.90
2019-03-29T07:32:52.767Z,36.00
2019-03-29T07:33:52.766Z,34.80
2019-03-29T07:34:52.761Z,39.70
2019-03-29T07:35:52.755Z,35.60
2019-03-29T07:36:52.747Z,36.40
2019-03-29T07:37:52.748Z,34.80
2019-03-29T07:38:52.749Z,37.80
2019-03-29T07:39:53.976Z,33.80
2019-03-29T07:40:52.731Z,32.40
2019-03-29T07:41:52.721Z,36.90
2019-03-29T07:42:52.727Z,38.00
2019-03-29T07:43:52.723Z,37.10
2019-03-29T07:44:52.716Z,36.90
2019-03-29T07:45:52.700Z,35.40
2019-03-29T07:46:52.702Z,38.20
2019-03-29T07:47:52.690Z,32.50
2019-03-29T07:48:52.695Z,35.90
2019-03-29T07:49:52.691Z,31.00
2019-03-29T07:50:52.680Z,33.80
2019-03-29T07:51:52.678Z,37.40
2019-03-29T07:52:52.677Z,36.80
2019-03-29T07:53:52.661Z,35.90
2019-03-29T07:54:52.658Z,34.00
2019-03-29T07:55:52.651Z,31.70
2019-03-29T07:56:52.648Z,32.30
2019-03-29T07:57:52.649Z,33.20
2019-03-29T07:58:52.640Z,31.80
2019-03-29T07:59:52.627Z,33.20
2019-03-29T08:00:52.633Z,34.20
2019-03-29T08:01:52.621Z,32.40
2019-03-29T08:02:52.628Z,30.00
2019-03-29T08:03:53.359Z,36.50
2019-03-29T08:04:52.610Z,34.60
2019-03-29T08:05:52.603Z,34.10
2019-03-29T08:06:52.604Z,37.30
2019-03-29T08:07:52.594Z,34.00
2019-03-29T08:08:52.591Z,33.10
2019-03-29T08:09:54.006Z,36.90
2019-03-29T08:10:53.961Z,31.50
2019-03-29T08:11:52.583Z,34.70
2019-03-29T08:12:52.575Z,31.80
2019-03-29T08:13:52.561Z,34.10
2019-03-29T08:14:52.558Z,37.10
2019-03-29T08:15:52.552Z,33.90
2019-03-29T08:16:52.543Z,31.10
2019-03-29T08:17:52.541Z,35.40
2019-03-29T08:18:52.539Z,32.80
2019-03-29T08:20:24.573Z,32.70
2019-03-29T08:20:52.532Z,36.60
2019-03-29T08:21:52.523Z,34.90
2019-03-29T08:22:52.518Z,31.20
2019-03-29T08:23:52.514Z,31.60
2019-03-29T08:24:52.521Z,32.30
2019-03-29T08:25:52.499Z,35.20
2019-03-29T08:26:52.494Z,39.40
2019-03-29T08:27:52.493Z,32.50
2019-03-29T08:28:52.485Z,34.70
2019-03-29T08:29:52.481Z,31.00
2019-03-29T08:30:52.481Z,36.60
2019-03-29T08:31:55.331Z,36.10
2019-03-29T08:32:52.466Z,39.90
2019-03-29T08:33:52.460Z,31.00
2019-03-29T08:34:52.454Z,33.60
2019-03-29T08:35:52.449Z,35.00
2019-03-29T08:36:52.447Z,30.20
2019-03-29T08:37:52.437Z,35.80
2019-03-29T08:38:52.484Z,32.60
2019-03-29T08:39:52.430Z,36.00
2019-03-29T08:40:52.428Z,33.60
2019-03-29T08:41:59.958Z,30.40
2019-03-29T08:42:52.416Z,38.30
2019-03-29T08:43:52.407Z,31.40
2019-03-29T08:44:52.403Z,32.50
2019-03-29T08:45:52.406Z,36.90
2019-03-29T08:46:52.386Z,31.30
2019-03-29T08:47:52.389Z,32.10
2019-03-29T08:48:52.385Z,34.60
2019-03-29T08:49:52.376Z,32.40
2019-03-29T08:50:52.370Z,33.20
2019-03-29T08:51:52.362Z,28.20
2019-03-29T08:52:52.363Z,30.60
2019-03-29T08:53:52.351Z,32.50
2019-03-29T08:54:52.357Z,39.60
2019-03-29T08:55:52.349Z,33.50
2019-03-29T08:56:52.347Z,34.40
2019-03-29T08:57:52.336Z,30.30
2019-03-29T08:58:52.332Z,32.10
2019-03-29T08:59:52.328Z,30.80
2019-03-29T09:00:52.323Z,29.20
2019-03-29T09:01:52.338Z,27.30
2019-03-29T09:02:52.312Z,28.60
2019-03-29T09:04:04.868Z,23.80
2019-03-29T09:04:52.296Z,26.50
2019-03-29T09:05:52.295Z,28.00
2019-03-29T09:06:53.987Z,29.30
2019-03-29T09:07:52.281Z,25.50
2019-03-29T09:08:52.273Z,21.10
2019-03-29T09:09:52.279Z,27.10
2019-03-29T09:10:52.267Z,25.50
2019-03-29T09:11:52.264Z,23.00
2019-03-29T09:12:52.253Z,27.10
2019-03-29T09:13:52.257Z,25.20
2019-03-29T09:14:52.246Z,22.00
2019-03-29T09:15:52.247Z,28.10
2019-03-29T09:16:52.277Z,24.70
2019-03-29T09:17:52.233Z,21.10
2019-03-29T09:18:52.224Z,20.30
2019-03-29T09:19:52.218Z,24.60
2019-03-29T09:20:52.215Z,25.80
2019-03-29T09:21:52.203Z,21.20
2019-03-29T09:22:52.209Z,25.40
2019-03-29T09:23:52.193Z,21.90
2019-03-29T09:24:52.210Z,20.90
2019-03-29T09:25:52.205Z,22.10
2019-03-29T09:26:52.181Z,20.40
2019-03-29T09:27:52.172Z,21.30
2019-03-29T09:28:52.173Z,19.70
2019-03-29T09:29:52.165Z,20.60
2019-03-29T09:30:52.190Z,22.00
2019-03-29T09:31:52.153Z,20.10
2019-03-29T09:32:52.148Z,20.30
2019-03-29T09:33:52.150Z,23.00
2019-03-29T09:34:52.153Z,21.50
2019-03-29T09:35:52.141Z,23.80
2019-03-29T09:36:52.127Z,16.90
2019-03-29T09:37:52.124Z,20.50
2019-03-29T09:38:52.126Z,21.40
2019-03-29T09:39:52.110Z,18.00
2019-03-29T09:40:58.584Z,21.30
2019-03-29T09:41:52.096Z,21.10
2019-03-29T09:43:06.209Z,17.60
2019-03-29T09:43:54.181Z,21.10
2019-03-29T09:44:52.084Z,19.60
2019-03-29T09:45:52.085Z,18.90
2019-03-29T09:46:52.081Z,17.00
2019-03-29T09:47:52.072Z,18.60
2019-03-29T09:48:52.068Z,18.50
2019-03-29T09:49:52.052Z,20.50
2019-03-29T09:50:52.058Z,14.40
2019-03-29T09:51:52.053Z,16.20
2019-03-29T09:52:52.067Z,16.40
2019-03-29T09:53:52.038Z,17.60
2019-03-29T09:54:54.051Z,16.40
2019-03-29T09:55:53.491Z,15.00
2019-03-29T09:56:52.022Z,12.20
2019-03-29T09:57:52.042Z,15.80
2019-03-29T09:58:52.013Z,16.10
2019-03-29T09:59:52.016Z,13.10
2019-03-29T10:00:52.010Z,13.70
2019-03-29T10:01:53.995Z,14.40
2019-03-29T10:02:52.020Z,13.60
2019-03-29T10:03:51.991Z,14.30
2019-03-29T10:04:51.984Z,15.10
2019-03-29T10:05:51.986Z,19.90
2019-03-29T10:06:51.979Z,15.70
2019-03-29T10:07:51.966Z,17.90
2019-03-29T10:08:53.452Z,14.90
2019-03-29T10:09:51.964Z,14.50
2019-03-29T10:10:51.965Z,13.10
2019-03-29T10:11:51.953Z,11.50
2019-03-29T10:12:51.951Z,13.30
2019-03-29T10:13:51.942Z,12.70
2019-03-29T10:14:51.955Z,12.30
2019-03-29T10:15:51.935Z,13.80
2019-03-29T10:16:51.928Z,17.50
2019-03-29T10:17:51.930Z,14.70
2019-03-29T10:18:51.922Z,15.40
2019-03-29T10:19:51.916Z,11.50
2019-03-29T10:20:51.913Z,14.00
2019-03-29T10:21:51.907Z,12.00
2019-03-29T10:22:51.914Z,10.10
2019-03-29T10:23:51.900Z,10.80
2019-03-29T10:24:51.892Z,9.50
2019-03-29T10:25:51.885Z,12.00
2019-03-29T10:26:51.884Z,9.40
2019-03-29T10:27:51.874Z,9.60
2019-03-29T10:28:51.872Z,8.10
2019-03-29T10:29:51.882Z,8.60
2019-03-29T10:30:51.884Z,7.80
2019-03-29T10:31:52.085Z,10.80
2019-03-29T10:32:55.282Z,10.30
2019-03-29T10:33:51.861Z,10.90
2019-03-29T10:34:51.853Z,8.60
2019-03-29T10:35:52.943Z,8.80
2019-03-29T10:36:51.840Z,8.00
2019-03-29T10:37:51.835Z,9.20
2019-03-29T10:38:51.841Z,8.00
2019-03-29T10:39:51.821Z,7.40
2019-03-29T10:40:51.822Z,9.90
2019-03-29T10:41:51.824Z,9.80
2019-03-29T10:42:58.166Z,8.80
2019-03-29T10:43:51.809Z,8.60
2019-03-29T10:44:51.803Z,8.20
2019-03-29T10:45:51.801Z,7.00
2019-03-29T10:46:51.802Z,8.30
2019-03-29T10:47:51.796Z,9.70
2019-03-29T10:48:51.779Z,9.40
2019-03-29T10:49:51.791Z,6.30
2019-03-29T10:50:51.799Z,7.50
2019-03-29T10:51:51.782Z,7.70
2019-03-29T10:52:51.779Z,8.90
2019-03-29T10:53:51.767Z,9.20
2019-03-29T10:54:51.759Z,6.90
2019-03-29T10:55:51.763Z,9.30
2019-03-29T10:56:51.754Z,9.80
2019-03-29T10:57:51.754Z,10.60
2019-03-29T10:58:51.748Z,7.70
2019-03-29T10:59:51.749Z,7.40
2019-03-29T11:00:51.740Z,8.70
2019-03-29T11:01:51.738Z,6.80
2019-03-29T11:02:51.736Z,8.50
2019-03-29T11:03:51.735Z,8.30
2019-03-29T11:04:51.745Z,7.60
2019-03-29T11:05:51.716Z,8.70
2019-03-29T11:06:51.736Z,10.90
2019-03-29T11:07:51.711Z,8.00
2019-03-29T11:08:51.714Z,10.10
2019-03-29T11:09:51.710Z,7.80
2019-03-29T11:10:51.704Z,8.70
2019-03-29T11:11:51.695Z,7.20
2019-03-29T11:12:51.702Z,10.60
2019-03-29T11:13:51.692Z,7.50
2019-03-29T11:14:51.693Z,8.70
2019-03-29T11:15:51.687Z,8.90
2019-03-29T11:16:51.685Z,7.20
2019-03-29T11:17:51.676Z,7.60
2019-03-29T11:18:51.671Z,8.00
2019-03-29T11:19:51.676Z,7.40
2019-03-29T11:20:51.666Z,7.60
2019-03-29T11:21:51.665Z,9.30
2019-03-29T11:22:51.659Z,8.90
2019-03-29T11:23:51.676Z,10.50
2019-03-29T11:24:51.655Z,7.70
2019-03-29T11:25:51.653Z,10.90
2019-03-29T11:26:51.645Z,5.90
2019-03-29T11:27:51.652Z,8.40
2019-03-29T11:28:51.647Z,11.40
2019-03-29T11:29:51.645Z,11.40
2019-03-29T11:30:51.630Z,7.20
2019-03-29T11:31:51.625Z,10.40
2019-03-29T11:32:51.633Z,9.10
2019-03-29T11:33:51.624Z,7.80
2019-03-29T11:34:51.624Z,7.80
2019-03-29T11:35:51.622Z,7.80
2019-03-29T11:36:52.765Z,7.60
2019-03-29T11:37:51.613Z,8.30
2019-03-29T11:38:51.607Z,6.80
2019-03-29T11:39:51.604Z,9.40
2019-03-29T11:40:51.603Z,10.20
2019-03-29T11:41:51.606Z,9.80
2019-03-29T11:42:51.593Z,7.80
2019-03-29T11:43:51.602Z,7.70
2019-03-29T11:44:51.589Z,8.20
2019-03-29T11:45:51.586Z,7.70
2019-03-29T11:46:51.578Z,6.10
2019-03-29T11:47:51.576Z,6.80
2019-03-29T11:48:51.575Z,9.40
2019-03-29T11:49:52.827Z,7.40
2019-03-29T11:50:51.581Z,11.20
2019-03-29T11:51:51.568Z,6.60
2019-03-29T11:52:51.567Z,5.70
2019-03-29T11:53:51.597Z,6.80
2019-03-29T11:54:51.560Z,6.70
2019-03-29T11:55:51.557Z,5.60
2019-03-29T11:56:51.559Z,7.30
2019-03-29T11:57:51.552Z,5.50
2019-03-29T11:58:51.552Z,7.20
2019-03-29T11:59:51.571Z,6.80
2019-03-29T12:00:51.540Z,8.30
2019-03-29T12:01:51.548Z,6.50
2019-03-29T12:02:51.544Z,6.40
2019-03-29T12:03:51.541Z,6.70
2019-03-29T12:04:51.530Z,6.80
2019-03-29T12:05:51.535Z,5.80
2019-03-29T12:06:51.527Z,8.30
2019-03-29T12:07:51.526Z,7.40
2019-03-29T12:08:51.520Z,6.90
2019-03-29T12:09:51.522Z,6.20
2019-03-29T12:10:51.512Z,6.80
2019-03-29T12:11:51.519Z,7.60
2019-03-29T12:12:51.511Z,5.10
2019-03-29T12:13:51.504Z,5.30
2019-03-29T12:14:51.496Z,9.10
2019-03-29T12:15:51.496Z,5.70
2019-03-29T12:16:51.495Z,5.20
2019-03-29T12:17:51.494Z,8.80
2019-03-29T12:18:51.492Z,6.20
2019-03-29T12:19:51.496Z,5.60
2019-03-29T12:20:54.188Z,6.40
2019-03-29T12:21:51.488Z,10.10
2019-03-29T12:22:51.476Z,6.00
2019-03-29T12:23:51.477Z,5.00
2019-03-29T12:24:51.484Z,4.90
2019-03-29T12:25:51.467Z,4.70
2019-03-29T12:26:54.826Z,4.40
2019-03-29T12:27:51.463Z,3.10
2019-03-29T12:28:51.461Z,5.90
2019-03-29T12:29:51.465Z,4.10
2019-03-29T12:30:51.453Z,7.00
2019-03-29T12:31:51.446Z,3.90
2019-03-29T12:32:51.443Z,5.60
2019-03-29T12:33:51.447Z,7.30
2019-03-29T12:34:51.441Z,4.00
2019-03-29T12:35:51.440Z,6.40
2019-03-29T12:36:51.437Z,5.10
2019-03-29T12:37:51.439Z,6.60
2019-03-29T12:38:51.429Z,6.90
2019-03-29T12:39:51.426Z,4.80
2019-03-29T12:40:51.435Z,5.50
2019-03-29T12:41:51.423Z,4.70
2019-03-29T12:42:51.423Z,4.50
2019-03-29T12:43:55.880Z,4.60
2019-03-29T12:44:51.408Z,15.00
2019-03-29T12:45:51.404Z,7.90
2019-03-29T12:46:51.402Z,7.40
2019-03-29T12:47:51.408Z,6.80
2019-03-29T12:48:51.397Z,5.10
2019-03-29T12:49:51.394Z,6.40
2019-03-29T12:50:52.347Z,3.90
2019-03-29T12:51:51.390Z,3.90
2019-03-29T12:52:51.387Z,6.50
2019-03-29T12:53:51.386Z,4.10
2019-03-29T12:54:51.479Z,3.70
2019-03-29T12:55:51.385Z,5.20
2019-03-29T12:56:51.379Z,5.00